createdAt,value
2022-11-21T00:01:23.430Z,0.30
2022-11-21T00:03:50.793Z,0.20
2022-11-21T00:06:18.636Z,0.20
2022-11-21T00:08:46.406Z,0.22
2022-11-21T00:11:13.763Z,0.30
2022-11-21T00:13:41.096Z,0.30
2022-11-21T00:16:12.048Z,0.20
2022-11-21T00:18:39.993Z,0.20
2022-11-21T00:21:16.066Z,0.30
2022-11-21T00:23:44.988Z,0.50
2022-11-21T00:26:14.773Z,0.22
2022-11-21T00:28:41.958Z,0.35
2022-11-21T00:31:08.915Z,2.53
2022-11-21T00:33:36.901Z,0.20
2022-11-21T00:36:10.431Z,0.30
2022-11-21T00:38:38.718Z,0.20
2022-11-21T00:41:06.302Z,0.17
2022-11-21T00:43:33.443Z,0.30
2022-11-21T00:46:02.714Z,0.20
2022-11-21T00:48:31.506Z,0.28
2022-11-21T00:51:00.383Z,1.65
2022-11-21T00:53:27.372Z,0.30
2022-11-21T00:55:54.255Z,0.40
2022-11-21T00:58:21.273Z,0.25
2022-11-21T01:00:48.126Z,0.20
2022-11-21T01:03:15.047Z,0.30
2022-11-21T01:05:41.887Z,0.40
2022-11-21T01:08:08.772Z,0.30
2022-11-21T01:10:36.560Z,0.35
2022-11-21T01:13:04.355Z,0.30
2022-11-21T01:15:31.349Z,0.20
2022-11-21T01:17:58.157Z,1.38
2022-11-21T01:20:25.043Z,0.30
2022-11-21T01:22:51.855Z,0.20
2022-11-21T01:25:18.694Z,0.28
2022-11-21T01:27:45.586Z,0.52
2022-11-21T01:30:13.374Z,0.45
2022-11-21T01:32:40.192Z,0.20
2022-11-21T01:35:07.804Z,0.20
2022-11-21T01:37:34.645Z,0.45
2022-11-21T01:40:02.663Z,0.80
2022-11-21T01:42:29.517Z,0.70
2022-11-21T01:44:56.396Z,1.10
2022-11-21T01:47:23.613Z,0.50
2022-11-21T01:49:52.339Z,0.30
2022-11-21T01:52:32.107Z,0.40
2022-11-21T01:55:06.078Z,0.25
2022-11-21T01:57:41.278Z,0.22
2022-11-21T02:00:17.928Z,0.32
2022-11-21T02:02:53.358Z,1.27
2022-11-21T02:05:27.437Z,0.30
2022-11-21T02:08:02.426Z,0.55
2022-11-21T02:10:29.318Z,0.65
2022-11-21T02:12:58.757Z,0.20
2022-11-21T02:15:29.014Z,0.38
2022-11-21T02:17:56.267Z,0.40
2022-11-21T02:20:26.847Z,0.30
2022-11-21T02:23:09.779Z,0.20
2022-11-21T02:25:41.475Z,0.43
2022-11-21T02:28:14.469Z,0.50
2022-11-21T02:30:43.121Z,0.38
2022-11-21T02:33:12.223Z,0.77
2022-11-21T02:35:39.899Z,1.45
2022-11-21T02:38:24.989Z,1.50
2022-11-21T02:41:15.009Z,0.30
2022-11-21T02:43:57.388Z,0.40
2022-11-21T02:46:24.189Z,0.30
2022-11-21T02:48:50.976Z,1.13
2022-11-21T02:51:17.754Z,1.08
2022-11-21T02:53:46.248Z,1.02
2022-11-21T02:56:13.088Z,0.40
2022-11-21T02:58:40.168Z,0.50
2022-11-21T03:01:07.058Z,1.60
2022-11-21T03:03:33.935Z,2.75
2022-11-21T03:06:00.800Z,0.40
2022-11-21T03:08:27.645Z,0.52
2022-11-21T03:10:54.478Z,0.30
2022-11-21T03:13:21.302Z,0.65
2022-11-21T03:15:48.124Z,2.10
2022-11-21T03:18:14.909Z,0.40
2022-11-21T03:20:41.762Z,0.73
2022-11-21T03:23:08.597Z,0.55
2022-11-21T03:25:35.394Z,0.90
2022-11-21T03:28:02.277Z,2.83
2022-11-21T03:30:29.213Z,0.30
2022-11-21T03:32:57.198Z,0.75
2022-11-21T03:35:24.892Z,0.95
2022-11-21T03:37:51.907Z,0.50
2022-11-21T03:40:18.809Z,1.55
2022-11-21T03:42:45.685Z,1.58
2022-11-21T03:45:12.470Z,1.27
2022-11-21T03:47:39.361Z,0.28
2022-11-21T03:50:06.893Z,0.95
2022-11-21T03:52:33.803Z,0.60
2022-11-21T03:55:00.666Z,1.00
2022-11-21T03:57:27.529Z,0.55
2022-11-21T03:59:54.299Z,0.80
2022-11-21T04:02:21.143Z,0.57
2022-11-21T04:04:47.988Z,0.80
2022-11-21T04:07:14.815Z,0.80
2022-11-21T04:09:41.655Z,2.17
2022-11-21T04:12:08.416Z,1.90
2022-11-21T04:14:35.232Z,0.47
2022-11-21T04:17:02.058Z,0.50
2022-11-21T04:19:29.113Z,0.80
2022-11-21T04:21:55.902Z,1.00
2022-11-21T04:24:23.179Z,7.60
2022-11-21T04:26:50.219Z,3.22
2022-11-21T04:29:17.014Z,2.13
2022-11-21T04:31:43.842Z,0.90
2022-11-21T04:34:10.670Z,0.45
2022-11-21T04:36:37.603Z,1.10
2022-11-21T04:39:04.566Z,0.47
2022-11-21T04:41:31.432Z,1.67
2022-11-21T04:43:58.248Z,2.13
2022-11-21T04:46:25.198Z,0.75
2022-11-21T04:48:52.060Z,2.03
2022-11-21T04:51:18.939Z,0.52
2022-11-21T04:53:45.724Z,0.93
2022-11-21T04:56:16.389Z,0.30
2022-11-21T04:58:44.708Z,1.00
2022-11-21T05:01:12.297Z,2.20
2022-11-21T05:03:39.428Z,0.60
2022-11-21T05:06:06.346Z,1.55
2022-11-21T05:08:33.461Z,0.98
2022-11-21T05:11:18.650Z,0.50
2022-11-21T05:13:45.448Z,1.60
2022-11-21T05:16:12.257Z,2.03
2022-11-21T05:18:39.065Z,0.65
2022-11-21T05:21:05.848Z,1.85
2022-11-21T05:23:32.631Z,1.00
2022-11-21T05:25:59.443Z,1.90
2022-11-21T05:28:26.295Z,0.45
2022-11-21T05:30:53.161Z,0.98
2022-11-21T05:33:20.455Z,0.85
2022-11-21T05:35:47.371Z,0.75
2022-11-21T05:38:14.228Z,1.15
2022-11-21T05:40:41.062Z,1.17
2022-11-21T05:43:26.471Z,1.17
2022-11-21T05:45:53.257Z,0.17
2022-11-21T05:48:20.258Z,0.77
2022-11-21T05:50:49.644Z,0.75
2022-11-21T05:53:17.411Z,0.50
2022-11-21T05:55:45.159Z,0.45
2022-11-21T05:58:12.337Z,0.60
2022-11-21T06:00:39.452Z,0.93
2022-11-21T06:03:26.694Z,1.70
2022-11-21T06:06:11.088Z,0.60
2022-11-21T06:08:46.836Z,2.92
2022-11-21T06:11:16.313Z,0.55
2022-11-21T06:13:43.541Z,0.60
2022-11-21T06:16:14.759Z,0.63
2022-11-21T06:18:47.644Z,0.85
2022-11-21T06:21:24.217Z,0.20
2022-11-21T06:23:57.094Z,2.40
2022-11-21T06:26:27.324Z,0.57
2022-11-21T06:28:54.697Z,0.40
2022-11-21T06:31:26.485Z,0.77
2022-11-21T06:33:59.097Z,0.40
2022-11-21T06:36:26.555Z,2.92
2022-11-21T06:38:55.498Z,1.33
2022-11-21T06:41:30.157Z,1.35
2022-11-21T06:44:01.332Z,1.67
2022-11-21T06:46:28.179Z,2.78
2022-11-21T06:48:55.017Z,0.63
2022-11-21T06:51:24.480Z,2.03
2022-11-21T06:53:58.494Z,1.48
2022-11-21T06:56:31.240Z,2.47
2022-11-21T06:58:59.293Z,1.13
2022-11-21T07:01:26.527Z,1.67
2022-11-21T07:03:54.189Z,0.30
2022-11-21T07:06:22.057Z,1.33
2022-11-21T07:09:17.589Z,0.60
2022-11-21T07:11:40.370Z,0.40
2022-11-21T07:14:09.294Z,0.55
2022-11-21T07:16:36.912Z,0.30
2022-11-21T07:19:03.757Z,0.22
2022-11-21T07:21:30.604Z,0.17
2022-11-21T07:23:57.487Z,0.35
2022-11-21T07:26:24.301Z,0.30
2022-11-21T07:28:51.126Z,1.05
2022-11-21T07:31:17.946Z,0.70
2022-11-21T07:33:45.714Z,0.30
2022-11-21T07:36:13.221Z,0.45
2022-11-21T07:38:41.488Z,0.30
2022-11-21T07:41:09.200Z,0.30
2022-11-21T07:43:36.049Z,0.30
2022-11-21T07:46:03.104Z,0.65
2022-11-21T07:48:31.094Z,0.28
2022-11-21T07:50:57.865Z,0.88
2022-11-21T07:53:24.653Z,0.88
2022-11-21T07:55:51.422Z,0.20
2022-11-21T07:58:18.452Z,0.60
2022-11-21T08:00:45.509Z,0.30
2022-11-21T08:03:13.543Z,1.90
2022-11-21T08:05:43.490Z,1.15
2022-11-21T08:08:12.932Z,0.13
2022-11-21T08:10:43.388Z,0.20
2022-11-21T08:13:11.251Z,0.63
2022-11-21T08:15:38.520Z,0.40
2022-11-21T08:18:20.374Z,0.20
2022-11-21T08:20:47.314Z,0.35
2022-11-21T08:23:14.213Z,0.40
2022-11-21T08:25:45.219Z,0.73
2022-11-21T08:28:13.454Z,1.10
2022-11-21T08:30:40.951Z,0.63
2022-11-21T08:33:08.159Z,0.75
2022-11-21T08:35:40.286Z,0.50
2022-11-21T08:38:07.198Z,0.40
2022-11-21T08:40:35.844Z,0.40
2022-11-21T08:43:06.790Z,0.35
2022-11-21T08:45:36.188Z,0.20
2022-11-21T08:48:04.899Z,1.17
2022-11-21T08:50:32.284Z,0.30
2022-11-21T08:53:03.144Z,2.42
2022-11-21T08:57:58.478Z,0.30
2022-11-21T09:00:25.949Z,0.38
2022-11-21T09:02:53.113Z,1.02
2022-11-21T09:05:19.985Z,0.80
2022-11-21T09:07:47.447Z,0.77
2022-11-21T09:10:15.067Z,1.30
2022-11-21T09:12:43.396Z,1.75
2022-11-21T09:15:30.005Z,0.57
2022-11-21T09:18:04.966Z,2.65
2022-11-21T09:20:34.587Z,0.77
2022-11-21T09:23:19.571Z,1.02
2022-11-21T09:25:47.015Z,0.90
2022-11-21T09:28:14.822Z,1.98
2022-11-21T09:30:43.024Z,3.60
2022-11-21T09:33:16.777Z,0.50
2022-11-21T09:35:44.148Z,0.98
2022-11-21T09:38:11.299Z,0.50
2022-11-21T09:40:45.604Z,1.77
2022-11-21T09:43:44.741Z,1.25
2022-11-21T09:46:18.298Z,1.08
2022-11-21T09:49:00.394Z,0.85
2022-11-21T09:51:31.413Z,5.97
2022-11-21T09:54:05.790Z,0.65
2022-11-21T09:56:41.008Z,2.25
2022-11-21T09:59:19.289Z,4.00
2022-11-21T10:01:47.175Z,1.40
2022-11-21T10:04:14.498Z,3.08
2022-11-21T10:07:08.038Z,0.75
2022-11-21T10:09:41.313Z,0.50
2022-11-21T10:12:50.335Z,2.78
2022-11-21T10:15:42.045Z,2.03
2022-11-21T10:18:46.724Z,3.45
2022-11-21T10:22:11.055Z,1.10
2022-11-21T10:25:01.424Z,1.23
2022-11-21T10:27:50.257Z,1.88
2022-11-21T10:30:20.639Z,1.23
2022-11-21T10:33:06.252Z,1.75
2022-11-21T10:35:44.145Z,1.95
2022-11-21T10:38:26.353Z,0.68
2022-11-21T10:41:12.443Z,1.27
2022-11-21T10:43:58.111Z,3.22
2022-11-21T10:46:24.941Z,0.70
2022-11-21T10:49:04.817Z,1.42
2022-11-21T10:51:58.751Z,1.70
2022-11-21T10:54:34.467Z,2.72
2022-11-21T10:57:20.406Z,5.85
2022-11-21T11:00:22.931Z,2.15
2022-11-21T11:02:55.873Z,1.58
2022-11-21T11:05:30.764Z,1.60
2022-11-21T11:08:10.461Z,0.60
2022-11-21T11:10:45.022Z,0.80
2022-11-21T11:13:46.484Z,1.35
2022-11-21T11:16:19.713Z,0.43
2022-11-21T11:18:56.545Z,3.00
2022-11-21T11:21:27.840Z,2.45
2022-11-21T11:24:06.856Z,2.15
2022-11-21T11:26:33.899Z,1.95
2022-11-21T11:29:18.514Z,3.92
2022-11-21T11:31:50.867Z,2.17
2022-11-21T11:34:18.610Z,1.63
2022-11-21T11:36:55.821Z,1.65
2022-11-21T11:40:04.530Z,1.02
2022-11-21T11:43:23.203Z,1.48
2022-11-21T11:46:21.081Z,2.65
2022-11-21T11:49:17.557Z,6.55
2022-11-21T11:51:47.817Z,0.80
2022-11-21T11:54:29.861Z,2.03
2022-11-21T11:56:59.269Z,0.88
2022-11-21T11:59:40.626Z,3.60
2022-11-21T12:02:23.695Z,1.48
2022-11-21T12:05:05.214Z,1.25
2022-11-21T12:08:38.914Z,1.77
2022-11-21T12:11:01.342Z,0.63
2022-11-21T12:13:31.560Z,1.35
2022-11-21T12:16:13.054Z,10.30
2022-11-21T12:19:07.757Z,1.02
2022-11-21T12:21:34.591Z,1.67
2022-11-21T12:24:04.476Z,1.63
2022-11-21T12:26:54.200Z,1.25
2022-11-21T12:30:09.171Z,1.95
2022-11-21T12:32:39.075Z,0.50
2022-11-21T12:35:15.106Z,1.23
2022-11-21T12:37:57.087Z,1.95
2022-11-21T12:41:32.445Z,0.55
2022-11-21T12:44:07.870Z,0.52
2022-11-21T12:47:09.530Z,1.08
2022-11-21T12:50:22.594Z,0.80
2022-11-21T12:53:23.259Z,1.25
2022-11-21T12:55:59.484Z,1.90
2022-11-21T12:58:39.375Z,2.13
2022-11-21T13:01:32.885Z,0.82
2022-11-21T13:04:15.329Z,0.93
2022-11-21T13:06:47.092Z,1.00
2022-11-21T13:09:19.115Z,0.40
2022-11-21T13:12:09.837Z,0.52
2022-11-21T13:14:52.573Z,0.32
2022-11-21T13:17:35.968Z,0.80
2022-11-21T13:20:19.444Z,1.20
2022-11-21T13:22:47.197Z,0.80
2022-11-21T13:25:43.264Z,1.08
2022-11-21T13:28:18.867Z,1.23
2022-11-21T13:30:56.633Z,0.40
2022-11-21T13:33:35.406Z,0.30
2022-11-21T13:36:11.914Z,3.40
2022-11-21T13:38:50.986Z,0.73
2022-11-21T13:41:54.874Z,1.85
2022-11-21T13:44:33.889Z,0.70
2022-11-21T13:47:09.416Z,1.52
2022-11-21T13:49:48.515Z,1.58
2022-11-21T13:52:48.745Z,1.35
2022-11-21T13:55:45.257Z,0.70
2022-11-21T13:58:41.944Z,0.40
2022-11-21T14:01:33.449Z,3.90
2022-11-21T14:04:12.284Z,0.95
2022-11-21T14:06:45.619Z,2.42
2022-11-21T14:09:36.916Z,3.13
2022-11-21T14:12:18.700Z,0.68
2022-11-21T14:15:09.609Z,1.58
2022-11-21T14:17:55.040Z,3.15
2022-11-21T14:20:26.803Z,3.40
2022-11-21T14:23:16.941Z,1.00
2022-11-21T14:26:00.166Z,2.53
2022-11-21T14:28:30.132Z,2.78
2022-11-21T14:31:02.731Z,2.40
2022-11-21T14:33:32.264Z,1.52
2022-11-21T14:36:18.295Z,0.52
2022-11-21T14:39:07.495Z,0.88
2022-11-21T14:41:39.261Z,1.30
2022-11-21T14:44:18.546Z,0.60
2022-11-21T14:46:47.456Z,2.35
2022-11-21T14:49:17.589Z,1.73
2022-11-21T14:52:12.025Z,1.47
2022-11-21T14:55:28.522Z,3.60
2022-11-21T14:57:43.184Z,2.47
2022-11-21T15:00:43.183Z,0.95
2022-11-21T15:03:03.648Z,1.77
2022-11-21T15:06:00.623Z,1.77
2022-11-21T15:11:16.480Z,1.17
2022-11-21T15:14:14.326Z,1.92
2022-11-21T15:16:37.833Z,1.48
2022-11-21T15:19:11.184Z,0.80
2022-11-21T15:21:46.430Z,1.92
2022-11-21T15:24:37.521Z,1.63
2022-11-21T15:30:10.497Z,2.03
2022-11-21T15:33:14.464Z,5.35
2022-11-21T15:35:41.196Z,5.75
2022-11-21T15:38:40.560Z,3.15
2022-11-21T15:41:10.550Z,1.95
2022-11-21T15:44:19.460Z,1.50
2022-11-21T15:46:47.141Z,2.10
2022-11-21T15:52:09.856Z,3.47
2022-11-21T15:54:37.265Z,2.47
2022-11-21T15:57:04.114Z,1.30
2022-11-21T15:59:31.564Z,3.17
2022-11-21T16:01:58.689Z,3.03
2022-11-21T16:04:26.298Z,12.45
2022-11-21T16:06:56.113Z,5.07
2022-11-21T16:09:23.051Z,4.53
2022-11-21T16:11:49.899Z,5.20
2022-11-21T16:14:18.404Z,3.45
2022-11-21T16:16:47.475Z,3.78
2022-11-21T16:19:15.977Z,3.35
2022-11-21T16:21:43.594Z,4.82
2022-11-21T16:24:10.417Z,2.22
2022-11-21T16:26:37.218Z,2.22
2022-11-21T16:29:07.149Z,3.97
2022-11-21T16:31:34.278Z,2.30
2022-11-21T16:34:01.244Z,1.60
2022-11-21T16:36:30.778Z,4.07
2022-11-21T16:39:01.891Z,1.42
2022-11-21T16:41:32.294Z,2.05
2022-11-21T16:43:59.156Z,2.70
2022-11-21T16:46:26.046Z,2.28
2022-11-21T16:49:01.539Z,1.92
2022-11-21T16:51:29.666Z,1.80
2022-11-21T16:54:01.571Z,1.95
2022-11-21T16:56:31.309Z,1.65
2022-11-21T16:58:58.182Z,2.15
2022-11-21T17:01:28.076Z,1.90
2022-11-21T17:03:55.429Z,2.60
2022-11-21T17:06:28.882Z,4.90
2022-11-21T17:08:55.989Z,4.55
2022-11-21T17:11:29.312Z,5.00
2022-11-21T17:14:02.190Z,4.43
2022-11-21T17:16:29.851Z,1.98
2022-11-21T17:19:00.053Z,2.67
2022-11-21T17:21:28.619Z,2.90
2022-11-21T17:23:55.506Z,3.15
2022-11-21T17:26:26.887Z,4.07
2022-11-21T17:29:00.067Z,5.60
2022-11-21T17:31:27.902Z,2.75
2022-11-21T17:33:57.450Z,3.75
2022-11-21T17:36:27.620Z,4.03
2022-11-21T17:38:55.280Z,1.50
2022-11-21T17:41:24.855Z,1.52
2022-11-21T17:43:56.721Z,1.42
2022-11-21T17:46:28.148Z,2.10
2022-11-21T17:48:58.969Z,1.55
2022-11-21T17:51:34.213Z,2.85
2022-11-21T17:54:02.217Z,1.55
2022-11-21T17:56:32.695Z,1.67
2022-11-21T17:59:00.620Z,2.83
2022-11-21T18:01:28.067Z,2.75
2022-11-21T18:04:02.163Z,2.97
2022-11-21T18:06:38.207Z,2.15
2022-11-21T18:09:07.841Z,1.58
2022-11-21T18:11:39.921Z,1.50
2022-11-21T18:14:10.368Z,1.58
2022-11-21T18:16:39.299Z,1.90
2022-11-21T18:19:07.654Z,1.58
2022-11-21T18:21:38.091Z,1.85
2022-11-21T18:24:05.338Z,1.25
2022-11-21T18:26:39.560Z,2.00
2022-11-21T18:31:55.746Z,2.10
2022-11-21T18:34:22.543Z,2.75
2022-11-21T18:36:49.405Z,2.72
2022-11-21T18:39:16.228Z,1.73
2022-11-21T18:41:44.049Z,2.67
2022-11-21T18:44:15.746Z,1.90
2022-11-21T18:46:44.221Z,1.80
2022-11-21T18:49:11.047Z,1.63
2022-11-21T18:51:37.924Z,3.85
2022-11-21T18:54:08.553Z,1.98
2022-11-21T18:59:05.772Z,2.35
2022-11-21T19:01:35.150Z,1.60
2022-11-21T19:04:02.561Z,2.70
2022-11-21T19:06:29.786Z,2.83
2022-11-21T19:08:58.192Z,2.45
2022-11-21T19:11:28.509Z,2.30
2022-11-21T19:13:57.029Z,2.85
2022-11-21T19:16:27.238Z,2.60
2022-11-21T19:19:31.918Z,2.90
2022-11-21T19:21:42.399Z,2.85
2022-11-21T19:24:14.648Z,4.95
2022-11-21T19:26:42.733Z,3.47
2022-11-21T19:29:10.319Z,4.18
2022-11-21T19:31:43.101Z,5.82
2022-11-21T19:34:14.220Z,4.47
2022-11-21T19:36:41.582Z,7.47
2022-11-21T19:39:09.058Z,2.25
2022-11-21T19:41:35.997Z,3.25
2022-11-21T19:44:03.123Z,6.10
2022-11-21T19:46:33.541Z,26.92
2022-11-21T19:49:01.280Z,27.70
2022-11-21T19:51:32.348Z,9.30
2022-11-21T19:53:59.371Z,18.48
2022-11-21T19:56:26.828Z,8.85
2022-11-21T19:58:55.783Z,7.78
2022-11-21T20:01:26.420Z,4.53
2022-11-21T20:04:00.631Z,13.10
2022-11-21T20:06:33.190Z,63.17
2022-11-21T20:09:24.652Z,36.08
2022-11-21T20:11:52.987Z,87.30
2022-11-21T20:14:22.714Z,50.08
2022-11-21T20:16:52.790Z,21.90
2022-11-21T20:19:23.882Z,10.52
2022-11-21T20:21:51.741Z,7.07
2022-11-21T20:24:18.638Z,12.60
2022-11-21T20:26:45.820Z,36.03
2022-11-21T20:29:15.708Z,21.40
2022-11-21T20:31:42.803Z,10.17
2022-11-21T20:34:13.947Z,7.50
2022-11-21T20:36:41.604Z,3.40
2022-11-21T20:39:15.052Z,3.25
2022-11-21T20:41:41.913Z,3.03
2022-11-21T20:47:07.266Z,2.25
2022-11-21T20:49:34.313Z,3.38
2022-11-21T20:54:48.092Z,6.43
2022-11-21T20:57:15.707Z,16.48
2022-11-21T20:59:43.464Z,5.97
2022-11-21T21:02:14.216Z,3.22
2022-11-21T21:04:41.725Z,3.13
2022-11-21T21:07:08.697Z,2.20
2022-11-21T21:09:35.579Z,2.50
2022-11-21T21:12:02.387Z,2.22
2022-11-21T21:14:29.253Z,20.73
2022-11-21T21:16:56.093Z,9.68
2022-11-21T21:19:23.019Z,21.00
2022-11-21T21:21:49.918Z,19.00
2022-11-21T21:24:17.300Z,7.55
2022-11-21T21:26:49.356Z,6.80
2022-11-21T21:29:20.427Z,6.95
2022-11-21T21:31:51.716Z,4.05
2022-11-21T21:34:22.010Z,2.95
2022-11-21T21:36:50.677Z,1.92
2022-11-21T21:39:17.556Z,1.98
2022-11-21T21:41:46.045Z,9.65
2022-11-21T21:44:13.929Z,4.45
2022-11-21T21:46:40.860Z,2.60
2022-11-21T21:49:07.736Z,2.20
2022-11-21T21:51:36.742Z,17.13
2022-11-21T21:54:04.256Z,13.40
2022-11-21T21:56:31.111Z,13.98
2022-11-21T21:58:58.490Z,10.68
2022-11-21T22:01:29.549Z,4.68
2022-11-21T22:04:02.965Z,2.45
2022-11-21T22:06:32.796Z,2.70
2022-11-21T22:09:00.278Z,2.47
2022-11-21T22:11:31.374Z,2.13
2022-11-21T22:14:01.798Z,1.80
2022-11-21T22:16:29.516Z,1.50
2022-11-21T22:18:57.484Z,1.98
2022-11-21T22:21:32.469Z,3.25
2022-11-21T22:24:24.305Z,1.70
2022-11-21T22:26:48.691Z,1.27
2022-11-21T22:29:15.684Z,1.83
2022-11-21T22:31:42.493Z,1.58
2022-11-21T22:34:13.925Z,1.20
2022-11-21T22:36:41.478Z,1.23
2022-11-21T22:39:08.607Z,2.58
2022-11-21T22:41:35.404Z,1.65
2022-11-21T22:44:02.314Z,2.08
2022-11-21T22:46:30.508Z,2.95
2022-11-21T22:48:58.386Z,1.80
2022-11-21T22:51:31.648Z,2.00
2022-11-21T22:53:58.530Z,1.60
2022-11-21T22:56:26.014Z,1.48
2022-11-21T22:58:53.527Z,2.10
2022-11-21T23:01:25.899Z,1.40
2022-11-21T23:03:55.405Z,1.70
2022-11-21T23:06:25.264Z,1.77
2022-11-21T23:08:57.086Z,1.47
2022-11-21T23:11:28.078Z,1.85
2022-11-21T23:13:57.130Z,1.45
2022-11-21T23:16:25.524Z,2.33
2022-11-21T23:18:54.172Z,2.03
2022-11-21T23:21:21.432Z,1.60
2022-11-21T23:23:48.491Z,1.50
2022-11-21T23:26:15.658Z,1.05
2022-11-21T23:28:42.648Z,1.27
2022-11-21T23:31:10.476Z,3.20
2022-11-21T23:33:37.379Z,3.15
2022-11-21T23:36:04.598Z,2.13
2022-11-21T23:38:31.791Z,2.30
2022-11-21T23:40:58.656Z,1.65
2022-11-21T23:43:25.508Z,1.50
2022-11-21T23:45:54.254Z,2.17
2022-11-21T23:48:24.019Z,1.65
2022-11-21T23:50:51.597Z,2.50
2022-11-21T23:53:19.712Z,1.63
2022-11-21T23:55:46.924Z,1.67
2022-11-21T23:58:15.296Z,2.13
